createdAt,value
2023-11-18T00:00:02.275Z,49.05
2023-11-18T00:02:35.132Z,42.72
2023-11-18T00:05:02.091Z,45.42
2023-11-18T00:07:30.139Z,43.90
2023-11-18T00:09:57.683Z,41.03
2023-11-18T00:12:25.628Z,35.72
2023-11-18T00:14:52.803Z,43.33
2023-11-18T00:17:21.307Z,49.05
2023-11-18T00:19:48.680Z,45.40
2023-11-18T00:22:15.653Z,36.80
2023-11-18T00:24:42.383Z,44.45
2023-11-18T00:27:09.426Z,46.70
2023-11-18T00:29:36.798Z,41.10
2023-11-18T00:32:04.836Z,44.28
2023-11-18T00:34:31.776Z,40.63
2023-11-18T00:36:58.737Z,45.15
2023-11-18T00:39:26.076Z,45.83
2023-11-18T00:41:53.038Z,38.20
2023-11-18T00:44:20.170Z,40.30
2023-11-18T00:46:47.054Z,35.25
2023-11-18T00:49:14.163Z,41.30
2023-11-18T00:51:42.391Z,38.78
2023-11-18T00:54:09.158Z,37.03
2023-11-18T00:56:37.333Z,43.63
2023-11-18T00:59:04.411Z,43.20
2023-11-18T01:01:31.481Z,59.38
2023-11-18T01:04:00.652Z,70.97
2023-11-18T01:06:27.962Z,66.95
2023-11-18T01:08:55.141Z,49.15
2023-11-18T01:11:23.633Z,47.70
2023-11-18T01:13:51.429Z,40.90
2023-11-18T01:16:18.379Z,45.25
2023-11-18T01:18:52.223Z,46.25
2023-11-18T01:21:20.057Z,39.95
2023-11-18T01:23:47.029Z,41.42
2023-11-18T01:26:13.893Z,40.47
2023-11-18T01:28:44.617Z,49.85
2023-11-18T01:31:12.143Z,42.83
2023-11-18T01:33:42.947Z,38.10
2023-11-18T01:36:10.752Z,40.55
2023-11-18T01:38:41.439Z,42.58
2023-11-18T01:41:08.774Z,53.75
2023-11-18T01:43:36.163Z,41.03
2023-11-18T01:46:06.021Z,42.95
2023-11-18T01:48:34.595Z,42.85
2023-11-18T01:51:05.483Z,41.80
2023-11-18T01:53:32.484Z,40.25
2023-11-18T01:56:00.950Z,39.97
2023-11-18T01:58:28.755Z,41.22
2023-11-18T02:00:56.904Z,46.42
2023-11-18T02:03:24.080Z,40.13
2023-11-18T02:05:52.916Z,46.38
2023-11-18T02:08:20.227Z,49.58
2023-11-18T02:10:48.835Z,49.30
2023-11-18T02:13:26.868Z,44.40
2023-11-18T02:15:58.206Z,57.08
2023-11-18T02:18:31.087Z,45.33
2023-11-18T02:21:00.381Z,39.63
2023-11-18T02:23:28.741Z,43.58
2023-11-18T02:25:56.915Z,44.78
2023-11-18T02:28:27.477Z,41.72
2023-11-18T02:31:01.147Z,36.40
2023-11-18T02:33:44.886Z,38.78
2023-11-18T02:36:37.071Z,40.72
2023-11-18T02:39:17.086Z,41.73
2023-11-18T02:41:47.756Z,50.85
2023-11-18T02:44:19.078Z,45.83
2023-11-18T02:46:45.924Z,43.25
2023-11-18T02:49:13.216Z,44.75
2023-11-18T02:51:44.385Z,38.55
2023-11-18T02:54:11.926Z,43.60
2023-11-18T02:56:39.255Z,50.22
2023-11-18T02:59:06.724Z,50.63
2023-11-18T03:01:40.449Z,48.22
2023-11-18T03:04:07.676Z,43.97
2023-11-18T03:06:35.029Z,48.38
2023-11-18T03:09:02.501Z,46.17
2023-11-18T03:11:32.621Z,56.72
2023-11-18T03:13:59.608Z,44.45
2023-11-18T03:16:26.904Z,54.45
2023-11-18T03:18:54.071Z,49.08
2023-11-18T03:21:21.041Z,41.13
2023-11-18T03:23:48.495Z,48.08
2023-11-18T03:26:15.437Z,40.75
2023-11-18T03:28:42.389Z,53.33
2023-11-18T03:31:10.521Z,38.80
2023-11-18T03:33:37.424Z,41.55
2023-11-18T03:36:04.626Z,37.63
2023-11-18T03:38:31.629Z,40.80
2023-11-18T03:40:59.871Z,43.25
2023-11-18T03:43:26.884Z,41.20
2023-11-18T03:45:57.966Z,40.88
2023-11-18T03:48:25.521Z,44.28
2023-11-18T03:50:52.504Z,44.00
2023-11-18T03:53:19.493Z,43.60
2023-11-18T03:55:46.284Z,49.33
2023-11-18T03:58:13.085Z,42.97
2023-11-18T04:00:39.976Z,43.72
2023-11-18T04:03:08.677Z,46.60
2023-11-18T04:05:36.422Z,52.47
2023-11-18T04:08:03.404Z,46.65
2023-11-18T04:10:30.349Z,48.20
2023-11-18T04:12:58.068Z,43.38
2023-11-18T04:15:28.276Z,46.83
2023-11-18T04:17:55.213Z,46.15
2023-11-18T04:20:22.536Z,52.45
2023-11-18T04:22:49.574Z,43.50
2023-11-18T04:25:16.633Z,44.35
2023-11-18T04:27:46.297Z,51.45
2023-11-18T04:30:14.519Z,45.53
2023-11-18T04:32:44.158Z,44.22
2023-11-18T04:35:13.705Z,41.80
2023-11-18T04:37:44.183Z,41.55
2023-11-18T04:40:12.998Z,42.30
2023-11-18T04:42:41.784Z,45.78
2023-11-18T04:45:11.009Z,41.45
2023-11-18T04:47:39.823Z,46.45
2023-11-18T04:50:07.721Z,47.67
2023-11-18T04:52:36.119Z,41.55
2023-11-18T04:55:06.608Z,43.08
2023-11-18T04:57:33.924Z,45.85
2023-11-18T05:00:11.116Z,41.95
2023-11-18T05:02:41.930Z,48.58
2023-11-18T05:05:09.738Z,40.78
2023-11-18T05:07:37.212Z,44.50
2023-11-18T05:10:04.471Z,41.38
2023-11-18T05:12:31.462Z,39.03
2023-11-18T05:14:58.460Z,49.85
2023-11-18T05:17:25.652Z,34.58
2023-11-18T05:19:52.821Z,44.45
2023-11-18T05:22:20.186Z,52.13
2023-11-18T05:24:47.534Z,36.45
2023-11-18T05:27:15.078Z,45.80
2023-11-18T05:29:49.102Z,41.50
2023-11-18T05:32:16.100Z,40.60
2023-11-18T05:34:43.469Z,40.28
2023-11-18T05:37:10.388Z,32.67
2023-11-18T05:39:44.088Z,35.22
2023-11-18T05:42:11.805Z,37.78
2023-11-18T05:44:40.884Z,37.78
2023-11-18T05:47:08.419Z,44.50
2023-11-18T05:49:35.899Z,38.35
2023-11-18T05:52:02.781Z,37.15
2023-11-18T05:54:29.702Z,39.28
2023-11-18T05:56:58.622Z,37.40
2023-11-18T05:59:27.944Z,35.30
2023-11-18T06:01:55.162Z,38.38
2023-11-18T06:04:22.257Z,32.45
2023-11-18T06:06:49.554Z,33.95
2023-11-18T06:09:22.361Z,34.63
2023-11-18T06:11:51.091Z,33.42
2023-11-18T06:14:18.327Z,47.80
2023-11-18T06:16:45.394Z,40.85
2023-11-18T06:19:13.786Z,31.52
2023-11-18T06:21:40.745Z,36.53
2023-11-18T06:24:08.306Z,40.42
2023-11-18T06:26:37.341Z,28.80
2023-11-18T06:29:07.746Z,29.90
2023-11-18T06:31:34.601Z,34.55
2023-11-18T06:34:03.838Z,36.47
2023-11-18T06:36:32.330Z,37.33
2023-11-18T06:39:00.296Z,34.17
2023-11-18T06:41:34.890Z,36.00
2023-11-18T06:44:04.606Z,35.90
2023-11-18T06:46:34.902Z,36.28
2023-11-18T06:49:08.248Z,37.53
2023-11-18T06:51:37.643Z,35.88
2023-11-18T06:54:12.350Z,33.60
2023-11-18T06:56:43.818Z,35.80
2023-11-18T06:59:13.924Z,35.83
2023-11-18T07:01:42.182Z,35.17
2023-11-18T07:04:12.100Z,30.05
2023-11-18T07:06:39.448Z,30.92
2023-11-18T07:09:14.070Z,30.55
2023-11-18T07:11:44.793Z,38.30
2023-11-18T07:14:13.584Z,33.53
2023-11-18T07:16:41.766Z,31.52
2023-11-18T07:19:11.639Z,33.35
2023-11-18T07:21:38.661Z,31.10
2023-11-18T07:24:06.010Z,34.67
2023-11-18T07:26:33.331Z,40.35
2023-11-18T07:29:00.273Z,35.10
2023-11-18T07:31:27.235Z,31.25
2023-11-18T07:33:55.171Z,27.05
2023-11-18T07:36:22.107Z,35.85
2023-11-18T07:38:49.223Z,27.30
2023-11-18T07:41:30.939Z,36.63
2023-11-18T07:44:00.553Z,30.17
2023-11-18T07:46:29.918Z,31.35
2023-11-18T07:48:58.156Z,27.67
2023-11-18T07:51:25.818Z,28.92
2023-11-18T07:53:54.225Z,29.30
2023-11-18T07:56:23.679Z,36.85
2023-11-18T07:58:51.878Z,30.80
2023-11-18T08:01:19.212Z,35.45
2023-11-18T08:03:46.438Z,29.17
2023-11-18T08:06:13.845Z,28.13
2023-11-18T08:08:42.072Z,31.95
2023-11-18T08:11:12.664Z,35.22
2023-11-18T08:13:39.537Z,25.77
2023-11-18T08:16:08.743Z,29.10
2023-11-18T08:18:37.086Z,24.15
2023-11-18T08:21:06.212Z,28.30
2023-11-18T08:23:33.124Z,34.60
2023-11-18T08:26:00.250Z,23.52
2023-11-18T08:28:27.240Z,27.42
2023-11-18T08:30:54.375Z,28.85
2023-11-18T08:33:22.422Z,26.23
2023-11-18T08:35:50.121Z,23.25
2023-11-18T08:38:17.209Z,23.33
2023-11-18T08:40:44.192Z,21.85
2023-11-18T08:43:12.593Z,23.83
2023-11-18T08:45:39.727Z,19.90
2023-11-18T08:48:09.995Z,28.85
2023-11-18T08:50:40.920Z,20.95
2023-11-18T08:53:11.084Z,17.40
2023-11-18T08:55:44.001Z,17.23
2023-11-18T08:58:35.232Z,16.58
2023-11-18T09:01:15.647Z,23.23
2023-11-18T09:03:54.177Z,17.83
2023-11-18T09:06:31.236Z,17.92
2023-11-18T09:08:59.469Z,22.10
2023-11-18T09:11:33.893Z,19.77
2023-11-18T09:14:02.113Z,19.83
2023-11-18T09:16:34.401Z,17.33
2023-11-18T09:19:03.667Z,20.40
2023-11-18T09:21:31.204Z,17.63
2023-11-18T09:23:58.609Z,18.42
2023-11-18T09:26:27.499Z,18.02
2023-11-18T09:28:54.861Z,20.20
2023-11-18T09:31:22.889Z,21.02
2023-11-18T09:33:58.969Z,16.63
2023-11-18T09:36:29.684Z,16.60
2023-11-18T09:38:56.928Z,22.70
2023-11-18T09:41:26.692Z,21.00
2023-11-18T09:43:55.874Z,21.80
2023-11-18T09:46:30.859Z,24.63
2023-11-18T09:49:16.285Z,21.23
2023-11-18T09:51:48.306Z,17.92
2023-11-18T09:54:34.214Z,23.03
2023-11-18T09:57:14.268Z,17.20
2023-11-18T09:59:56.018Z,18.58
2023-11-18T10:02:27.133Z,21.33
2023-11-18T10:04:59.269Z,21.27
2023-11-18T10:07:39.632Z,27.20
2023-11-18T10:10:15.363Z,28.15
2023-11-18T10:12:46.049Z,27.15
2023-11-18T10:15:15.826Z,25.45
2023-11-18T10:17:58.337Z,22.50
2023-11-18T10:20:48.963Z,22.52
2023-11-18T10:23:23.589Z,24.25
2023-11-18T10:25:54.008Z,16.90
2023-11-18T10:28:33.383Z,20.10
2023-11-18T10:31:05.391Z,25.75
2023-11-18T10:33:45.344Z,24.00
2023-11-18T10:36:24.444Z,20.40
2023-11-18T10:38:56.654Z,22.33
2023-11-18T10:41:24.299Z,24.83
2023-11-18T10:44:07.440Z,24.58
2023-11-18T10:46:34.407Z,20.85
2023-11-18T10:49:02.294Z,27.80
2023-11-18T10:51:32.048Z,24.35
2023-11-18T10:54:05.374Z,28.05
2023-11-18T10:56:34.209Z,22.40
2023-11-18T10:59:07.643Z,27.75
2023-11-18T11:01:40.135Z,28.48
2023-11-18T11:04:07.636Z,21.48
2023-11-18T11:06:35.351Z,23.38
2023-11-18T11:09:02.769Z,18.27
2023-11-18T11:11:40.271Z,20.98
2023-11-18T11:14:10.906Z,26.05
2023-11-18T11:16:46.179Z,16.80
2023-11-18T11:19:52.321Z,21.25
2023-11-18T11:22:22.831Z,23.10
2023-11-18T11:25:23.064Z,19.77
2023-11-18T11:28:02.909Z,24.52
2023-11-18T11:30:33.354Z,21.10
2023-11-18T11:33:18.329Z,25.27
2023-11-18T11:35:57.004Z,27.15
2023-11-18T11:38:30.084Z,23.85
2023-11-18T11:41:01.558Z,26.75
2023-11-18T11:43:32.131Z,22.67
2023-11-18T11:45:59.372Z,22.02
2023-11-18T11:48:29.126Z,22.00
2023-11-18T11:51:02.563Z,20.35
2023-11-18T11:53:34.460Z,15.10
2023-11-18T11:56:14.874Z,18.80
2023-11-18T11:58:46.549Z,19.80
2023-11-18T12:01:19.358Z,20.58
2023-11-18T12:03:49.314Z,20.60
2023-11-18T12:06:22.514Z,18.23
2023-11-18T12:08:52.565Z,23.65
2023-11-18T12:11:21.907Z,20.70
2023-11-18T12:14:25.717Z,20.77
2023-11-18T12:17:08.775Z,16.27
2023-11-18T12:19:47.949Z,16.23
2023-11-18T12:22:25.907Z,19.70
2023-11-18T12:24:59.378Z,12.85
2023-11-18T12:27:42.110Z,14.23
2023-11-18T12:30:26.040Z,14.88
2023-11-18T12:33:02.438Z,18.10
2023-11-18T12:35:30.914Z,16.83
2023-11-18T12:38:35.398Z,15.30
2023-11-18T12:41:08.772Z,18.92
2023-11-18T12:43:53.783Z,20.88
2023-11-18T12:46:51.043Z,13.38
2023-11-18T12:49:24.559Z,20.73
2023-11-18T12:51:57.042Z,12.63
2023-11-18T12:54:26.286Z,14.00
2023-11-18T12:56:55.166Z,22.10
2023-11-18T12:59:22.606Z,16.98
2023-11-18T13:01:54.744Z,15.02
2023-11-18T13:04:22.238Z,17.45
2023-11-18T13:06:49.970Z,21.02
2023-11-18T13:09:31.234Z,21.35
2023-11-18T13:12:03.121Z,13.05
2023-11-18T13:14:37.630Z,12.23
2023-11-18T13:17:07.228Z,9.98
2023-11-18T13:19:35.621Z,16.90
2023-11-18T13:22:09.282Z,11.70
2023-11-18T13:24:40.936Z,10.02
2023-11-18T13:27:10.177Z,12.07
2023-11-18T13:29:40.717Z,11.48
2023-11-18T13:32:11.005Z,16.50
2023-11-18T13:34:40.724Z,7.90
2023-11-18T13:37:08.470Z,8.95
2023-11-18T13:39:36.072Z,9.93
2023-11-18T13:42:22.774Z,10.32
2023-11-18T13:44:50.383Z,7.80
2023-11-18T13:47:21.459Z,13.68
2023-11-18T13:49:51.949Z,10.00
2023-11-18T13:52:20.537Z,11.18
2023-11-18T13:54:49.266Z,6.93
2023-11-18T13:57:16.592Z,6.07
2023-11-18T13:59:45.662Z,11.10
2023-11-18T14:02:13.277Z,12.50
2023-11-18T14:04:41.641Z,10.75
2023-11-18T14:07:10.634Z,7.13
2023-11-18T14:09:41.352Z,6.68
2023-11-18T14:12:13.149Z,7.43
2023-11-18T14:14:45.222Z,7.43
2023-11-18T14:17:12.310Z,7.78
2023-11-18T14:19:39.343Z,12.02
2023-11-18T14:22:08.243Z,4.57
2023-11-18T14:24:35.637Z,4.82
2023-11-18T14:27:02.843Z,5.28
2023-11-18T14:29:30.472Z,4.55
2023-11-18T14:31:57.687Z,3.97
2023-11-18T14:34:25.528Z,3.55
2023-11-18T14:36:52.735Z,4.82
2023-11-18T14:39:23.700Z,4.85
2023-11-18T14:41:52.065Z,10.98
2023-11-18T14:44:19.662Z,4.00
2023-11-18T14:46:47.366Z,5.38
2023-11-18T14:49:14.439Z,8.77
2023-11-18T14:51:41.544Z,2.30
2023-11-18T14:54:09.691Z,3.60
2023-11-18T14:56:36.903Z,4.75
2023-11-18T14:59:06.623Z,2.95
2023-11-18T15:01:34.573Z,4.55
2023-11-18T15:04:05.571Z,2.90
2023-11-18T15:06:32.428Z,3.20
2023-11-18T15:08:59.330Z,3.75
2023-11-18T15:11:26.514Z,4.82
2023-11-18T15:13:54.851Z,4.82
2023-11-18T15:16:22.563Z,4.78
2023-11-18T15:18:53.341Z,11.00
2023-11-18T15:21:20.734Z,1.75
2023-11-18T15:23:49.404Z,4.25
2023-11-18T15:26:16.558Z,3.63
2023-11-18T15:28:43.554Z,2.83
2023-11-18T15:31:10.626Z,7.63
2023-11-18T15:33:38.740Z,6.07
2023-11-18T15:36:08.644Z,4.55
2023-11-18T15:38:37.096Z,2.72
2023-11-18T15:41:04.447Z,1.55
2023-11-18T15:43:31.375Z,1.90
2023-11-18T15:45:59.813Z,1.55
2023-11-18T15:48:27.490Z,3.08
2023-11-18T15:50:55.692Z,2.13
2023-11-18T15:53:23.955Z,3.53
2023-11-18T15:55:50.915Z,2.30
2023-11-18T15:58:20.499Z,2.22
2023-11-18T16:00:48.119Z,2.90
2023-11-18T16:03:15.270Z,8.88
2023-11-18T16:05:42.155Z,3.83
2023-11-18T16:08:09.683Z,3.30
2023-11-18T16:10:38.492Z,4.03
2023-11-18T16:13:05.570Z,4.20
2023-11-18T16:15:33.937Z,3.10
2023-11-18T16:18:02.043Z,1.88
2023-11-18T16:20:33.897Z,1.65
2023-11-18T16:23:04.931Z,2.72
2023-11-18T16:25:33.249Z,4.05
2023-11-18T16:28:01.221Z,1.95
2023-11-18T16:30:31.045Z,2.15
2023-11-18T16:32:59.503Z,1.92
2023-11-18T16:35:27.301Z,1.90
2023-11-18T16:37:55.979Z,3.25
2023-11-18T16:40:25.112Z,2.33
2023-11-18T16:42:57.749Z,2.58
2023-11-18T16:45:25.958Z,2.63
2023-11-18T16:47:55.013Z,2.40
2023-11-18T16:50:28.241Z,15.65
2023-11-18T16:52:56.286Z,5.80
2023-11-18T16:55:23.315Z,3.92
2023-11-18T16:57:53.923Z,10.55
2023-11-18T17:00:25.786Z,5.07
2023-11-18T17:02:58.117Z,3.53
2023-11-18T17:05:29.491Z,2.10
2023-11-18T17:07:57.090Z,2.58
2023-11-18T17:10:24.514Z,2.92
2023-11-18T17:12:52.602Z,3.10
2023-11-18T17:15:20.435Z,2.78
2023-11-18T17:17:49.754Z,3.28
2023-11-18T17:20:17.669Z,2.65
2023-11-18T17:22:45.557Z,3.53
2023-11-18T17:25:17.311Z,6.35
2023-11-18T17:27:45.858Z,4.07
2023-11-18T17:30:17.601Z,5.00
2023-11-18T17:32:46.888Z,5.35
2023-11-18T17:35:15.517Z,5.85
2023-11-18T17:37:43.268Z,4.55
2023-11-18T17:40:13.562Z,6.35
2023-11-18T17:42:41.285Z,12.98
2023-11-18T17:45:09.494Z,6.97
2023-11-18T17:47:37.772Z,5.82
2023-11-18T17:50:09.963Z,4.97
2023-11-18T17:52:38.113Z,6.18
2023-11-18T17:55:06.098Z,6.50
2023-11-18T17:57:33.028Z,5.55
2023-11-18T17:59:59.914Z,6.10
2023-11-18T18:02:27.146Z,5.28
2023-11-18T18:04:54.698Z,6.20
2023-11-18T18:07:21.530Z,7.55
2023-11-18T18:09:48.394Z,8.82
2023-11-18T18:12:15.269Z,8.02
2023-11-18T18:14:42.590Z,7.70
2023-11-18T18:17:09.538Z,9.00
2023-11-18T18:19:38.723Z,10.88
2023-11-18T18:22:05.705Z,9.57
2023-11-18T18:24:34.500Z,10.68
2023-11-18T18:27:01.505Z,13.05
2023-11-18T18:29:28.471Z,13.02
2023-11-18T18:31:55.545Z,14.52
2023-11-18T18:34:22.489Z,14.15
2023-11-18T18:36:49.352Z,14.10
2023-11-18T18:39:18.251Z,14.57
2023-11-18T18:41:45.353Z,14.57
2023-11-18T18:44:12.469Z,18.05
2023-11-18T18:46:39.962Z,14.00
2023-11-18T18:49:06.890Z,17.00
2023-11-18T18:51:34.618Z,14.48
2023-11-18T18:54:01.543Z,16.30
2023-11-18T18:56:28.961Z,15.52
2023-11-18T18:58:55.937Z,16.98
2023-11-18T19:01:24.286Z,19.85
2023-11-18T19:03:51.595Z,16.58
2023-11-18T19:06:19.010Z,16.58
2023-11-18T19:08:46.166Z,17.20
2023-11-18T19:11:13.199Z,19.05
2023-11-18T19:13:40.105Z,15.65
2023-11-18T19:16:08.820Z,19.45
2023-11-18T19:18:35.834Z,18.73
2023-11-18T19:21:02.705Z,16.38
2023-11-18T19:23:34.116Z,17.30
2023-11-18T19:26:01.042Z,19.60
2023-11-18T19:28:27.978Z,17.67
2023-11-18T19:30:55.904Z,17.10
2023-11-18T19:33:22.824Z,18.33
2023-11-18T19:35:49.816Z,16.45
2023-11-18T19:38:16.713Z,18.13
2023-11-18T19:40:43.523Z,23.15
2023-11-18T19:43:10.602Z,19.52
2023-11-18T19:45:37.455Z,20.95
2023-11-18T19:48:04.535Z,21.27
2023-11-18T19:50:31.587Z,19.50
2023-11-18T19:52:58.800Z,21.05
2023-11-18T19:55:25.672Z,22.70
2023-11-18T19:57:52.509Z,20.05
2023-11-18T20:00:21.931Z,22.25
2023-11-18T20:02:50.284Z,21.23
2023-11-18T20:05:17.644Z,19.60
2023-11-18T20:07:44.604Z,22.73
2023-11-18T20:10:14.530Z,23.90
2023-11-18T20:12:41.791Z,20.10
2023-11-18T20:15:12.208Z,21.30
2023-11-18T20:17:39.455Z,26.10
2023-11-18T20:20:10.012Z,22.10
2023-11-18T20:22:38.792Z,22.33
2023-11-18T20:25:08.144Z,22.98
2023-11-18T20:27:36.444Z,21.27
2023-11-18T20:30:07.161Z,22.55
2023-11-18T20:32:34.577Z,26.55
2023-11-18T20:35:01.730Z,23.10
2023-11-18T20:37:28.750Z,27.80
2023-11-18T20:39:57.951Z,22.85
2023-11-18T20:42:25.247Z,23.02
2023-11-18T20:44:52.323Z,25.38
2023-11-18T20:47:19.410Z,26.58
2023-11-18T20:49:46.363Z,22.80
2023-11-18T20:52:14.374Z,24.90
2023-11-18T20:54:41.135Z,24.85
2023-11-18T20:57:08.413Z,24.88
2023-11-18T20:59:35.791Z,26.25
2023-11-18T21:02:04.127Z,27.75
2023-11-18T21:04:31.782Z,25.08
2023-11-18T21:06:59.324Z,28.77
2023-11-18T21:09:26.945Z,27.75
2023-11-18T21:12:17.118Z,30.80
2023-11-18T21:14:49.395Z,28.85
2023-11-18T21:17:16.547Z,27.35
2023-11-18T21:19:43.518Z,32.55
2023-11-18T21:22:10.712Z,39.00
2023-11-18T21:24:37.838Z,23.75
2023-11-18T21:27:05.184Z,28.95
2023-11-18T21:29:32.956Z,22.92
2023-11-18T21:31:59.855Z,28.10
2023-11-18T21:34:26.843Z,24.08
2023-11-18T21:36:54.497Z,23.88
2023-11-18T21:39:25.443Z,25.20
2023-11-18T21:41:52.666Z,29.75
2023-11-18T21:44:19.699Z,34.20
2023-11-18T21:46:46.530Z,34.45
2023-11-18T21:49:13.622Z,34.05
2023-11-18T21:51:40.560Z,44.70
2023-11-18T21:54:09.070Z,28.73
2023-11-18T21:56:36.466Z,31.40
2023-11-18T21:59:06.522Z,35.83
2023-11-18T22:01:33.450Z,29.05
2023-11-18T22:04:00.777Z,25.42
2023-11-18T22:06:27.750Z,22.85
2023-11-18T22:08:54.666Z,25.10
2023-11-18T22:11:21.638Z,30.83
2023-11-18T22:13:49.329Z,23.67
2023-11-18T22:16:16.996Z,23.00
2023-11-18T22:18:44.852Z,25.42
2023-11-18T22:21:12.523Z,20.40
2023-11-18T22:23:39.623Z,22.98
2023-11-18T22:26:08.453Z,19.75
2023-11-18T22:28:35.575Z,26.45
2023-11-18T22:31:05.220Z,18.75
2023-11-18T22:33:32.164Z,21.48
2023-11-18T22:35:59.203Z,23.80
2023-11-18T22:38:28.358Z,26.23
2023-11-18T22:40:56.334Z,22.83
2023-11-18T22:43:23.179Z,23.08
2023-11-18T22:45:52.089Z,20.83
2023-11-18T22:48:20.849Z,22.48
2023-11-18T22:50:48.335Z,21.45
2023-11-18T22:53:18.174Z,21.15
2023-11-18T22:55:46.138Z,23.50
2023-11-18T22:58:13.942Z,21.23
2023-11-18T23:00:43.756Z,20.15
2023-11-18T23:03:11.364Z,21.98
2023-11-18T23:05:40.868Z,24.58
2023-11-18T23:08:11.161Z,21.55
2023-11-18T23:10:40.003Z,20.13
2023-11-18T23:13:07.942Z,24.45
2023-11-18T23:15:40.049Z,20.10
2023-11-18T23:18:08.035Z,17.08
2023-11-18T23:20:38.014Z,18.45
2023-11-18T23:23:06.521Z,20.52
2023-11-18T23:25:34.617Z,22.45
2023-11-18T23:28:03.542Z,21.83
2023-11-18T23:30:32.585Z,18.90
2023-11-18T23:32:59.952Z,18.05
2023-11-18T23:35:27.937Z,23.00
2023-11-18T23:37:55.400Z,15.13
2023-11-18T23:40:24.106Z,22.70
2023-11-18T23:42:51.864Z,11.93
2023-11-18T23:45:20.501Z,20.15
2023-11-18T23:47:52.281Z,18.05
2023-11-18T23:50:20.804Z,22.23
2023-11-18T23:52:51.077Z,13.27
2023-11-18T23:55:18.069Z,17.38
2023-11-18T23:57:45.197Z,22.30
